Time;durP1;ratioP1;P1;durP2;ratioP2;P2;SDS_P1;SDS_P2;PMS_P1;PMS_P2;Temp;Humidity;BMP_temperature;BMP_pressure;BME280_temperature;BME280_humidity;BME280_pressure;Samples;Min_cycle;Max_cycle;Signal;HPM_P1;HPM_P2
2023/04/10 00:00:05;;;;;;;10.20;7.70;;;7.30;99.90;;;;;;5002308;28;20371;-77
2023/04/10 00:02:35;;;;;;;15.45;10.65;;;7.30;99.90;;;;;;5021906;28;20026;-77
2023/04/10 00:05:00;;;;;;;12.60;9.43;;;7.30;99.90;;;;;;5020212;28;20037;-78
2023/04/10 00:07:26;;;;;;;14.82;9.73;;;7.00;99.90;;;;;;5003233;28;20037;-77
2023/04/10 00:09:52;;;;;;;14.70;9.15;;;7.10;99.90;;;;;;4998412;28;20603;-77
2023/04/10 00:12:17;;;;;;;14.70;9.95;;;7.10;99.90;;;;;;5005060;28;20457;-78
2023/04/10 00:14:43;;;;;;;14.75;9.23;;;7.00;99.90;;;;;;5020644;28;20124;-77
2023/04/10 00:17:08;;;;;;;12.73;8.93;;;6.80;99.90;;;;;;5014244;28;20043;-77
2023/04/10 00:19:34;;;;;;;13.30;9.18;;;6.60;99.90;;;;;;5006671;28;20036;-77
2023/04/10 00:21:59;;;;;;;12.50;8.55;;;6.90;99.90;;;;;;5023237;28;20544;-77
2023/04/10 00:24:25;;;;;;;15.85;10.55;;;7.20;99.90;;;;;;5005378;28;20966;-77
2023/04/10 00:26:50;;;;;;;11.00;7.47;;;7.00;99.90;;;;;;5017980;28;20494;-78
2023/04/10 00:29:16;;;;;;;13.70;9.57;;;7.00;99.90;;;;;;5013227;28;20049;-77
2023/04/10 00:31:42;;;;;;;14.45;9.50;;;6.90;99.90;;;;;;5018862;28;20061;-78
2023/04/10 00:34:07;;;;;;;14.65;8.57;;;7.00;99.90;;;;;;5004385;28;20051;-78
2023/04/10 00:36:33;;;;;;;14.55;9.43;;;7.10;99.90;;;;;;5004540;28;20034;-78
2023/04/10 00:38:59;;;;;;;12.77;8.65;;;7.00;99.90;;;;;;5012407;28;20045;-77
2023/04/10 00:41:25;;;;;;;12.85;8.80;;;7.10;99.90;;;;;;5020626;28;20371;-77
2023/04/10 00:43:55;;;;;;;16.73;10.30;;;7.00;99.90;;;;;;5018077;28;20038;-77
2023/04/10 00:46:20;;;;;;;14.73;10.02;;;6.80;99.90;;;;;;5015771;28;20034;-78
2023/04/10 00:48:46;;;;;;;14.05;9.07;;;6.80;99.90;;;;;;5006140;28;20021;-78
2023/04/10 00:51:12;;;;;;;12.65;8.75;;;6.80;99.90;;;;;;4999996;28;20700;-77
2023/04/10 00:53:37;;;;;;;14.98;10.25;;;6.80;99.90;;;;;;5015420;28;20049;-77
2023/04/10 00:56:03;;;;;;;11.90;8.75;;;6.70;99.90;;;;;;5022918;28;20029;-77
2023/04/10 00:58:28;;;;;;;14.38;8.68;;;6.90;99.90;;;;;;5018804;28;20078;-78
2023/04/10 01:00:54;;;;;;;13.32;9.38;;;6.80;99.90;;;;;;5015039;28;20048;-77
2023/04/10 01:03:20;;;;;;;13.07;9.13;;;6.70;99.90;;;;;;5014442;28;20136;-78
2023/04/10 01:05:52;;;;;;;16.15;8.95;;;6.80;99.90;;;;;;5006193;28;20038;-77
2023/04/10 01:08:24;;;;;;;11.88;8.30;;;6.90;99.90;;;;;;5016697;28;20040;-77
2023/04/10 01:11:00;;;;;;;16.42;11.00;;;6.80;99.90;;;;;;5017098;28;20042;-77
2023/04/10 01:13:30;;;;;;;14.32;9.35;;;6.60;99.90;;;;;;5024117;28;20041;-77
2023/04/10 01:16:15;;;;;;;13.45;9.27;;;6.60;99.90;;;;;;5001223;28;20385;-77
2023/04/10 01:18:47;;;;;;;11.15;7.80;;;6.70;99.90;;;;;;5005076;28;20068;-78
2023/04/10 01:21:14;;;;;;;12.38;7.30;;;6.60;99.90;;;;;;5007866;28;20397;-77
2023/04/10 01:23:55;;;;;;;11.85;8.40;;;6.90;99.90;;;;;;5004543;28;20029;-77
2023/04/10 01:26:40;;;;;;;14.65;10.40;;;6.90;99.90;;;;;;5033437;28;20038;-78
2023/04/10 01:29:14;;;;;;;10.40;7.53;;;6.70;99.90;;;;;;5019002;28;20113;-78
2023/04/10 01:31:55;;;;;;;15.70;8.70;;;6.60;99.90;;;;;;5002312;28;20544;-77
2023/04/10 01:34:26;;;;;;;13.63;9.07;;;6.70;99.90;;;;;;5004380;28;20034;-78
2023/04/10 01:36:58;;;;;;;13.98;9.27;;;6.80;99.90;;;;;;5010993;28;20502;-77
2023/04/10 01:39:24;;;;;;;13.27;9.90;;;6.70;99.90;;;;;;5007588;28;20029;-77
2023/04/10 01:41:51;;;;;;;16.75;9.63;;;6.80;99.90;;;;;;5024892;28;20033;-77
2023/04/10 01:44:17;;;;;;;11.30;7.57;;;6.80;99.90;;;;;;5023442;28;20441;-77
2023/04/10 01:46:43;;;;;;;12.60;9.32;;;6.60;99.90;;;;;;4991771;28;20112;-77
2023/04/10 01:49:08;;;;;;;15.43;9.18;;;6.50;99.90;;;;;;5016268;28;20036;-77
2023/04/10 01:51:34;;;;;;;12.13;8.05;;;6.60;99.90;;;;;;5015965;28;20560;-77
2023/04/10 01:54:00;;;;;;;14.98;10.05;;;6.60;99.90;;;;;;5006815;28;20105;-78
2023/04/10 01:56:26;;;;;;;10.27;7.32;;;6.70;99.90;;;;;;5007239;28;20068;-78
2023/04/10 01:58:52;;;;;;;17.30;11.18;;;6.70;99.90;;;;;;5004967;28;20508;-77
2023/04/10 02:01:21;;;;;;;13.52;9.80;;;6.60;99.90;;;;;;5017772;28;20022;-78
2023/04/10 02:03:46;;;;;;;11.77;7.63;;;6.70;99.90;;;;;;5016559;28;20670;-77
2023/04/10 02:06:41;;;;;;;15.52;10.15;;;6.70;99.90;;;;;;5001159;28;20021;-77
2023/04/10 02:09:40;;;;;;;15.65;10.57;;;6.80;99.90;;;;;;5023630;28;20022;-77
2023/04/10 02:12:09;;;;;;;11.85;8.88;;;6.60;99.90;;;;;;5007692;28;20038;-78
2023/04/10 02:14:40;;;;;;;12.07;8.18;;;6.50;99.90;;;;;;5007920;28;20082;-77
2023/04/10 02:17:06;;;;;;;15.93;10.05;;;6.70;99.90;;;;;;5006486;28;20125;-77
2023/04/10 02:19:31;;;;;;;11.68;8.30;;;6.70;99.90;;;;;;5007513;28;20121;-77
2023/04/10 02:21:57;;;;;;;12.27;7.40;;;6.70;99.90;;;;;;5014920;28;20034;-77
2023/04/10 02:24:23;;;;;;;14.90;9.32;;;6.60;99.90;;;;;;5006867;28;20128;-78
2023/04/10 02:26:49;;;;;;;11.90;8.13;;;6.60;99.90;;;;;;5018827;28;20113;-78
2023/04/10 02:29:15;;;;;;;12.55;8.52;;;6.70;99.90;;;;;;5002353;28;20108;-77
2023/04/10 02:31:41;;;;;;;17.50;11.13;;;6.50;99.90;;;;;;5007554;28;20493;-77
2023/04/10 02:34:06;;;;;;;14.60;9.82;;;6.40;99.90;;;;;;5021221;28;20034;-77
2023/04/10 02:36:34;;;;;;;17.15;11.30;;;6.40;99.90;;;;;;5018999;28;20882;-77
2023/04/10 02:39:00;;;;;;;15.60;10.30;;;6.20;99.90;;;;;;5033470;28;20037;-77
2023/04/10 02:41:25;;;;;;;15.43;10.23;;;6.10;99.90;;;;;;5004007;28;20402;-79
2023/04/10 02:43:51;;;;;;;15.68;11.05;;;6.00;99.90;;;;;;5031678;28;20057;-77
2023/04/10 02:46:16;;;;;;;16.15;10.63;;;6.00;99.90;;;;;;5024314;28;20030;-77
2023/04/10 02:48:42;;;;;;;15.98;10.32;;;6.00;99.90;;;;;;5022327;28;20048;-77
2023/04/10 02:51:07;;;;;;;16.38;10.73;;;6.00;99.90;;;;;;5022591;28;20068;-78
2023/04/10 02:53:33;;;;;;;14.38;9.13;;;6.00;99.90;;;;;;5024412;28;20048;-78
2023/04/10 02:55:59;;;;;;;13.18;8.60;;;6.10;99.90;;;;;;5007632;28;20029;-78
2023/04/10 02:58:24;;;;;;;13.32;8.82;;;6.30;99.90;;;;;;5006418;28;20034;-77
2023/04/10 03:00:50;;;;;;;11.38;7.35;;;6.40;99.90;;;;;;5025701;28;20506;-78
2023/04/10 03:03:17;;;;;;;14.90;9.40;;;6.40;99.90;;;;;;5003365;28;20095;-77
2023/04/10 03:05:45;;;;;;;14.27;9.45;;;6.50;99.90;;;;;;5007039;28;20810;-77
2023/04/10 03:08:14;;;;;;;13.00;8.73;;;6.40;99.90;;;;;;5035995;28;20659;-77
2023/04/10 03:10:45;;;;;;;14.52;9.82;;;6.30;99.90;;;;;;5024058;28;20072;-77
2023/04/10 03:13:10;;;;;;;14.18;9.80;;;6.20;99.90;;;;;;5022474;28;20486;-77
2023/04/10 03:15:36;;;;;;;13.20;8.77;;;6.20;99.90;;;;;;5005521;28;20030;-77
2023/04/10 03:18:03;;;;;;;14.27;8.95;;;6.40;99.90;;;;;;4993018;28;20037;-77
2023/04/10 03:20:28;;;;;;;11.05;7.45;;;6.40;99.90;;;;;;5033108;28;20045;-78
2023/04/10 03:22:54;;;;;;;11.40;7.10;;;6.30;99.90;;;;;;5018247;28;20064;-77
2023/04/10 03:25:20;;;;;;;9.95;7.07;;;6.40;99.90;;;;;;5020638;28;20084;-78
2023/04/10 03:27:46;;;;;;;9.15;6.65;;;6.50;99.90;;;;;;5029306;28;20117;-77
2023/04/10 03:30:12;;;;;;;11.38;7.05;;;6.40;99.90;;;;;;5001188;28;20140;-78
2023/04/10 03:32:38;;;;;;;11.15;7.22;;;6.40;99.90;;;;;;5022591;28;20061;-77
2023/04/10 03:35:03;;;;;;;11.68;7.63;;;6.50;99.90;;;;;;5013785;28;20030;-78
2023/04/10 03:37:30;;;;;;;10.05;6.50;;;6.50;99.90;;;;;;5029620;28;20092;-77
2023/04/10 03:39:56;;;;;;;12.13;8.60;;;6.50;99.90;;;;;;5017953;28;20052;-76
2023/04/10 03:42:22;;;;;;;12.75;7.88;;;6.40;99.90;;;;;;5005917;28;20442;-77
2023/04/10 03:44:48;;;;;;;15.52;8.30;;;6.30;99.90;;;;;;5022732;28;20133;-77
2023/04/10 03:47:13;;;;;;;12.68;8.18;;;6.30;99.90;;;;;;5005175;28;20026;-77
2023/04/10 03:49:39;;;;;;;15.50;8.57;;;6.20;99.90;;;;;;5019150;28;20033;-77
2023/04/10 03:52:05;;;;;;;12.68;8.57;;;6.00;99.90;;;;;;5004255;28;20045;-77
2023/04/10 03:54:30;;;;;;;12.95;8.75;;;5.90;99.90;;;;;;5016186;28;20033;-77
2023/04/10 03:56:56;;;;;;;13.77;9.05;;;5.90;99.90;;;;;;5036825;28;20517;-77
2023/04/10 03:59:21;;;;;;;11.80;7.93;;;6.00;99.90;;;;;;5019245;28;20478;-78
2023/04/10 04:01:47;;;;;;;12.90;8.18;;;6.00;99.90;;;;;;4998323;28;20038;-78
2023/04/10 04:04:12;;;;;;;12.30;8.77;;;6.00;99.90;;;;;;5020316;28;20064;-77
2023/04/10 04:06:38;;;;;;;11.95;7.28;;;6.00;99.90;;;;;;5031965;28;20037;-77
2023/04/10 04:09:04;;;;;;;11.57;7.63;;;6.10;99.90;;;;;;5005308;28;20430;-77
2023/04/10 04:11:30;;;;;;;11.93;7.53;;;6.20;99.90;;;;;;5003545;28;20743;-77
2023/04/10 04:13:56;;;;;;;8.95;6.65;;;6.10;99.90;;;;;;5032503;28;20026;-78
2023/04/10 04:16:22;;;;;;;10.90;7.22;;;6.20;99.90;;;;;;5014150;28;20065;-78
2023/04/10 04:18:47;;;;;;;9.75;6.75;;;6.30;99.90;;;;;;5017676;28;20457;-77
2023/04/10 04:21:13;;;;;;;9.52;6.53;;;6.40;99.90;;;;;;5002578;28;20481;-78
2023/04/10 04:23:38;;;;;;;10.50;7.72;;;6.30;99.90;;;;;;5001044;28;20671;-76
2023/04/10 04:26:04;;;;;;;11.23;7.28;;;6.40;99.90;;;;;;4998074;28;20032;-76
2023/04/10 04:28:30;;;;;;;10.10;7.10;;;6.30;99.90;;;;;;5001942;28;20056;-76
2023/04/10 04:30:55;;;;;;;9.75;6.93;;;6.30;99.90;;;;;;5031569;28;20468;-77
2023/04/10 04:33:21;;;;;;;9.30;5.88;;;6.40;99.90;;;;;;5001876;28;20379;-76
2023/04/10 04:35:46;;;;;;;9.90;6.90;;;6.40;99.90;;;;;;5025187;28;20058;-77
2023/04/10 04:38:12;;;;;;;11.38;6.75;;;6.40;99.90;;;;;;5022421;28;20030;-78
2023/04/10 04:40:37;;;;;;;11.75;6.72;;;6.30;99.90;;;;;;5005282;28;20041;-77
2023/04/10 04:43:03;;;;;;;9.23;6.65;;;6.30;99.90;;;;;;5015217;28;20068;-78
2023/04/10 04:45:29;;;;;;;14.05;7.82;;;6.30;99.90;;;;;;5021303;28;20052;-75
2023/04/10 04:47:55;;;;;;;12.38;7.75;;;6.40;99.90;;;;;;5005000;28;20096;-76
2023/04/10 04:50:21;;;;;;;10.27;6.90;;;6.30;99.90;;;;;;5029377;28;20034;-78
2023/04/10 04:52:46;;;;;;;13.07;7.93;;;6.20;99.90;;;;;;5032317;28;20045;-79
2023/04/10 04:55:12;;;;;;;10.55;7.03;;;6.30;99.90;;;;;;4998270;28;20490;-78
2023/04/10 04:57:37;;;;;;;9.30;6.80;;;6.20;99.90;;;;;;5005274;28;20040;-82
2023/04/10 05:00:04;;;;;;;8.73;6.25;;;6.30;99.90;;;;;;5005409;28;20025;-77
2023/04/10 05:02:29;;;;;;;11.38;7.35;;;6.30;99.90;;;;;;5021886;28;20472;-77
2023/04/10 05:04:55;;;;;;;13.13;7.65;;;6.40;99.90;;;;;;4996722;28;20486;-78
2023/04/10 05:07:21;;;;;;;10.55;7.47;;;6.30;99.90;;;;;;5014928;28;20451;-78
2023/04/10 05:09:46;;;;;;;9.95;7.40;;;6.20;99.90;;;;;;5003103;28;20038;-77
2023/04/10 05:12:12;;;;;;;10.45;7.35;;;6.20;99.90;;;;;;5003911;28;20105;-78
2023/04/10 05:14:38;;;;;;;10.02;6.70;;;6.30;99.90;;;;;;5033318;28;20281;-77
2023/04/10 05:17:03;;;;;;;9.15;6.03;;;6.50;99.90;;;;;;5005354;28;20025;-77
2023/04/10 05:19:29;;;;;;;10.73;7.05;;;6.50;99.90;;;;;;5005751;28;20037;-77
2023/04/10 05:21:55;;;;;;;9.23;6.45;;;6.50;99.90;;;;;;5003639;28;20026;-77
2023/04/10 05:24:21;;;;;;;9.02;5.70;;;6.60;99.90;;;;;;4999837;28;20042;-77
2023/04/10 05:26:46;;;;;;;9.80;6.18;;;6.50;99.90;;;;;;5000339;28;20083;-77
2023/04/10 05:29:12;;;;;;;10.30;6.80;;;6.50;99.90;;;;;;5022061;28;20385;-77
2023/04/10 05:31:37;;;;;;;9.50;6.00;;;6.50;99.90;;;;;;5014887;28;20037;-78
2023/04/10 05:34:03;;;;;;;8.95;5.85;;;6.60;99.90;;;;;;5005086;28;20025;-78
2023/04/10 05:36:30;;;;;;;8.65;5.88;;;6.70;99.90;;;;;;5012720;28;20057;-80
2023/04/10 05:38:57;;;;;;;9.07;6.60;;;6.70;99.90;;;;;;5000844;28;20029;-78
2023/04/10 05:41:23;;;;;;;8.65;5.72;;;6.80;99.90;;;;;;5003531;28;20033;-78
2023/04/10 05:43:49;;;;;;;9.23;5.97;;;6.80;99.90;;;;;;4998877;28;20030;-78
2023/04/10 05:46:15;;;;;;;6.88;4.88;;;6.90;99.90;;;;;;5001214;28;20120;-77
2023/04/10 05:48:40;;;;;;;8.00;4.50;;;7.00;99.90;;;;;;4998469;28;20470;-78
2023/04/10 05:51:06;;;;;;;10.00;6.43;;;7.10;99.90;;;;;;5019713;28;20038;-78
2023/04/10 05:53:32;;;;;;;8.57;6.07;;;7.20;99.90;;;;;;5020448;28;20387;-79
2023/04/10 05:56:01;;;;;;;11.80;5.10;;;7.20;99.90;;;;;;5019899;28;20034;-78
2023/04/10 05:58:27;;;;;;;8.77;5.90;;;7.30;99.90;;;;;;5011937;28;20045;-78
2023/04/10 06:00:53;;;;;;;8.20;5.80;;;7.40;99.90;;;;;;5027199;28;20034;-78
2023/04/10 06:03:18;;;;;;;8.77;5.90;;;7.50;99.90;;;;;;5034518;28;20045;-78
2023/04/10 06:05:45;;;;;;;8.82;5.82;;;7.60;99.90;;;;;;5005131;28;20422;-78
2023/04/10 06:08:10;;;;;;;10.07;4.20;;;7.70;99.90;;;;;;5003175;28;20105;-78
2023/04/10 06:10:36;;;;;;;7.53;5.30;;;7.80;99.90;;;;;;5007887;28;20441;-77
2023/04/10 06:13:02;;;;;;;8.32;5.70;;;7.90;99.90;;;;;;5023754;28;20033;-78
2023/04/10 06:15:27;;;;;;;8.82;6.25;;;8.00;99.90;;;;;;5004007;28;20037;-78
2023/04/10 06:17:53;;;;;;;7.53;5.25;;;8.20;99.90;;;;;;5003017;28;20409;-78
2023/04/10 06:20:19;;;;;;;7.53;4.82;;;8.30;99.90;;;;;;5021167;28;20049;-78
2023/04/10 06:22:45;;;;;;;7.72;4.43;;;8.50;99.90;;;;;;5024936;28;20030;-78
2023/04/10 06:25:10;;;;;;;8.15;5.43;;;8.60;99.90;;;;;;5013539;28;20037;-77
2023/04/10 06:27:36;;;;;;;7.53;4.57;;;8.80;99.90;;;;;;5004178;28;20063;-79
2023/04/10 06:30:01;;;;;;;6.75;4.55;;;8.90;99.90;;;;;;5007974;28;20045;-78
2023/04/10 06:32:27;;;;;;;6.35;4.88;;;9.00;99.90;;;;;;5014943;28;20038;-78
2023/04/10 06:34:53;;;;;;;8.70;4.55;;;9.10;99.90;;;;;;5022125;28;20029;-78
2023/04/10 06:37:18;;;;;;;7.07;4.95;;;9.20;99.90;;;;;;5002703;28;20618;-78
2023/04/10 06:39:44;;;;;;;7.05;4.20;;;9.30;99.90;;;;;;5023123;28;20038;-78
2023/04/10 06:42:10;;;;;;;7.43;5.32;;;9.50;99.90;;;;;;5034018;28;20041;-77
2023/04/10 06:44:35;;;;;;;6.00;3.80;;;9.50;99.90;;;;;;5033536;28;20520;-79
2023/04/10 06:47:01;;;;;;;7.72;5.22;;;9.60;99.90;;;;;;5005606;28;20419;-78
2023/04/10 06:49:26;;;;;;;8.00;4.57;;;9.70;99.90;;;;;;5036883;28;20109;-77
2023/04/10 06:51:52;;;;;;;6.68;3.88;;;9.80;99.90;;;;;;5003289;28;20048;-76
2023/04/10 06:54:17;;;;;;;7.25;4.47;;;9.90;99.90;;;;;;5030874;28;20079;-76
2023/04/10 06:56:43;;;;;;;6.78;4.40;;;10.10;99.90;;;;;;5007978;28;20034;-76
2023/04/10 06:59:08;;;;;;;5.57;4.15;;;10.20;99.90;;;;;;4999030;28;20236;-76
2023/04/10 07:01:34;;;;;;;6.22;4.40;;;10.40;99.90;;;;;;5008241;28;20788;-77
2023/04/10 07:04:00;;;;;;;8.18;4.82;;;10.60;99.90;;;;;;5008344;28;20489;-76
2023/04/10 07:06:26;;;;;;;7.57;5.15;;;10.80;99.90;;;;;;5007611;28;20026;-76
2023/04/10 07:08:51;;;;;;;6.03;3.60;;;10.90;99.90;;;;;;5004216;28;20030;-76
2023/04/10 07:11:17;;;;;;;6.82;4.32;;;11.20;99.90;;;;;;5018941;28;20045;-77
2023/04/10 07:13:43;;;;;;;7.57;5.10;;;11.40;99.90;;;;;;5006859;28;20025;-77
2023/04/10 07:16:09;;;;;;;6.45;4.45;;;11.50;99.80;;;;;;5014217;28;20551;-76
2023/04/10 07:18:37;;;;;;;4.55;3.80;;;11.60;99.90;;;;;;5006459;28;20026;-76
2023/04/10 07:21:08;;;;;;;8.15;5.15;;;11.80;99.30;;;;;;5001079;28;20021;-76
2023/04/10 07:23:35;;;;;;;6.25;4.95;;;11.90;97.70;;;;;;5020343;28;20030;-76
2023/04/10 07:26:00;;;;;;;7.53;4.20;;;11.90;98.50;;;;;;4991826;28;20041;-76
2023/04/10 07:28:26;;;;;;;5.75;4.55;;;12.00;98.00;;;;;;5032679;28;20033;-76
2023/04/10 07:30:51;;;;;;;6.88;5.03;;;12.10;96.80;;;;;;5017986;28;20034;-77
2023/04/10 07:33:17;;;;;;;6.13;4.25;;;12.20;97.90;;;;;;5001663;28;20132;-76
2023/04/10 07:35:43;;;;;;;5.10;4.15;;;12.30;97.80;;;;;;5016021;28;20034;-76
2023/04/10 07:38:10;;;;;;;7.55;4.88;;;12.40;96.70;;;;;;5001233;28;20064;-76
2023/04/10 07:40:35;;;;;;;8.52;4.78;;;12.60;96.60;;;;;;5004500;28;20045;-76
2023/04/10 07:43:01;;;;;;;4.40;3.38;;;12.70;95.90;;;;;;5006048;28;20544;-76
2023/04/10 07:45:27;;;;;;;5.95;4.55;;;12.80;95.30;;;;;;5019116;28;20405;-76
2023/04/10 07:47:52;;;;;;;5.65;4.10;;;12.90;94.80;;;;;;5000130;28;20030;-76
2023/04/10 07:50:18;;;;;;;6.13;4.00;;;13.10;94.30;;;;;;5029466;28;20041;-76
2023/04/10 07:52:44;;;;;;;5.53;4.18;;;13.10;93.80;;;;;;5016794;28;20120;-75
2023/04/10 07:55:09;;;;;;;5.10;3.85;;;13.20;94.90;;;;;;5011124;28;20042;-76
2023/04/10 07:57:35;;;;;;;5.32;3.63;;;13.10;95.00;;;;;;5024288;28;20080;-75
2023/04/10 08:00:01;;;;;;;5.20;4.05;;;13.20;94.00;;;;;;5019175;28;20080;-76
2023/04/10 08:02:27;;;;;;;5.82;4.03;;;13.30;94.30;;;;;;5023381;28;20128;-76
2023/04/10 08:04:52;;;;;;;5.13;4.53;;;13.40;93.50;;;;;;5007879;28;20694;-77
2023/04/10 08:07:20;;;;;;;5.90;4.35;;;13.50;93.20;;;;;;5007512;28;20482;-76
2023/04/10 08:09:45;;;;;;;5.47;4.15;;;13.60;92.20;;;;;;5005813;28;20437;-76
2023/04/10 08:12:11;;;;;;;5.53;4.22;;;13.70;92.80;;;;;;5015800;28;20160;-76
2023/04/10 08:14:36;;;;;;;5.97;3.88;;;13.80;92.50;;;;;;5022634;28;20080;-77
2023/04/10 08:17:02;;;;;;;6.85;3.35;;;13.90;91.70;;;;;;5003524;28;20478;-76
2023/04/10 08:19:27;;;;;;;5.57;4.57;;;14.10;92.10;;;;;;5019180;28;20038;-76
2023/04/10 08:21:53;;;;;;;4.70;4.00;;;14.20;90.10;;;;;;5015365;28;20022;-76
2023/04/10 08:24:21;;;;;;;5.15;4.13;;;14.40;90.10;;;;;;5000893;28;20038;-76
2023/04/10 08:26:47;;;;;;;5.07;3.05;;;14.50;90.10;;;;;;5024411;28;20233;-77
2023/04/10 08:29:12;;;;;;;4.20;3.60;;;14.80;86.80;;;;;;5017234;28;20156;-76
2023/04/10 08:31:38;;;;;;;3.25;2.13;;;14.90;87.30;;;;;;5013147;28;20026;-77
2023/04/10 08:34:03;;;;;;;6.70;4.05;;;15.00;87.00;;;;;;5004677;28;20657;-76
2023/04/10 08:36:30;;;;;;;4.90;3.05;;;15.10;83.30;;;;;;5001817;28;20030;-76
2023/04/10 08:38:56;;;;;;;3.90;3.35;;;15.10;82.20;;;;;;5005953;28;20080;-77
2023/04/10 08:41:21;;;;;;;4.25;3.28;;;15.30;80.60;;;;;;5018828;28;20510;-76
2023/04/10 08:43:48;;;;;;;4.25;3.00;;;15.50;82.00;;;;;;5005010;28;20034;-77
2023/04/10 08:46:14;;;;;;;3.38;2.83;;;15.70;78.90;;;;;;5017926;28;20375;-77
2023/04/10 08:49:06;;;;;;;3.53;2.53;;;15.70;78.30;;;;;;5002158;28;20047;-76
2023/04/10 08:51:36;;;;;;;5.15;2.72;;;15.90;75.60;;;;;;5016786;28;20585;-76
2023/04/10 08:54:07;;;;;;;4.63;3.28;;;16.00;75.80;;;;;;5017186;28;20034;-77
2023/04/10 08:56:32;;;;;;;4.93;2.67;;;16.00;74.10;;;;;;5002057;28;20125;-77
2023/04/10 08:59:00;;;;;;;2.95;2.22;;;16.10;74.40;;;;;;5008603;28;20104;-77
2023/04/10 09:01:25;;;;;;;2.42;2.10;;;16.20;75.80;;;;;;5027786;28;20034;-77
2023/04/10 09:03:51;;;;;;;3.15;1.95;;;16.20;72.90;;;;;;5015786;28;20086;-76
2023/04/10 09:06:16;;;;;;;3.97;2.63;;;16.20;70.30;;;;;;5021199;28;20490;-77
2023/04/10 09:08:42;;;;;;;4.43;2.92;;;16.30;70.80;;;;;;5001161;28;20034;-77
2023/04/10 09:11:08;;;;;;;3.78;3.05;;;16.30;70.00;;;;;;5033126;28;20308;-77
2023/04/10 09:13:38;;;;;;;3.58;2.55;;;16.40;70.10;;;;;;5015254;28;20042;-76
2023/04/10 09:16:04;;;;;;;3.30;2.42;;;16.40;70.50;;;;;;5001674;28;20433;-77
2023/04/10 09:18:49;;;;;;;4.72;2.45;;;16.50;69.10;;;;;;5014884;28;20037;-77
2023/04/10 09:21:16;;;;;;;3.35;2.90;;;16.50;68.70;;;;;;5020813;28;20153;-77
2023/04/10 09:23:43;;;;;;;3.75;2.47;;;16.60;67.30;;;;;;5004046;28;20041;-76
2023/04/10 09:26:27;;;;;;;4.35;2.50;;;16.60;68.70;;;;;;5006254;28;20401;-77
2023/04/10 09:28:59;;;;;;;3.22;2.70;;;16.70;66.80;;;;;;5013879;28;20022;-77
2023/04/10 09:31:32;;;;;;;3.10;2.35;;;17.00;66.20;;;;;;5002772;28;20529;-78
2023/04/10 09:34:21;;;;;;;3.22;2.85;;;16.90;66.20;;;;;;5018794;28;20040;-77
2023/04/10 09:36:54;;;;;;;2.85;2.22;;;17.10;67.60;;;;;;5035794;28;20379;-76
2023/04/10 09:39:20;;;;;;;3.15;2.55;;;17.10;67.70;;;;;;5032353;28;20042;-76
2023/04/10 09:41:53;;;;;;;6.93;2.63;;;17.10;67.20;;;;;;5012208;28;20034;-77
2023/04/10 09:44:30;;;;;;;4.05;2.50;;;17.10;67.50;;;;;;5018420;28;20061;-78
2023/04/10 09:47:15;;;;;;;2.92;2.45;;;17.30;64.30;;;;;;5023113;28;20018;-77
2023/04/10 09:50:01;;;;;;;3.83;2.75;;;17.20;64.00;;;;;;5016708;28;20060;-77
2023/04/10 09:52:28;;;;;;;3.28;2.83;;;17.50;64.40;;;;;;5003995;28;20497;-78
2023/04/10 09:54:57;;;;;;;2.97;2.15;;;17.50;63.80;;;;;;5019652;28;20533;-79
2023/04/10 09:57:24;;;;;;;2.72;2.50;;;17.60;64.60;;;;;;5019970;28;20066;-77
2023/04/10 09:59:51;;;;;;;3.78;2.97;;;17.70;67.00;;;;;;5007994;28;20113;-77
2023/04/10 10:02:18;;;;;;;3.70;2.65;;;17.70;63.50;;;;;;4996224;28;20580;-77
2023/04/10 10:04:45;;;;;;;2.22;1.83;;;17.90;63.70;;;;;;5009330;28;20124;-78
2023/04/10 10:07:11;;;;;;;4.07;3.03;;;17.90;63.70;;;;;;5006180;28;20041;-78
2023/04/10 10:09:36;;;;;;;2.72;2.53;;;17.90;63.20;;;;;;5017268;28;20036;-78
2023/04/10 10:12:02;;;;;;;3.10;2.80;;;18.10;65.40;;;;;;5008463;28;20037;-77
2023/04/10 10:14:28;;;;;;;3.38;2.58;;;18.20;65.40;;;;;;5028861;28;20057;-78
2023/04/10 10:16:56;;;;;;;2.25;1.98;;;18.30;64.90;;;;;;5040559;28;20064;-77
2023/04/10 10:19:26;;;;;;;3.65;1.77;;;18.30;63.50;;;;;;5006350;28;20525;-77
2023/04/10 10:21:52;;;;;;;2.50;1.88;;;18.40;64.10;;;;;;5006549;28;20080;-77
2023/04/10 10:24:18;;;;;;;2.55;2.28;;;18.40;62.90;;;;;;5007763;28;20486;-77
2023/04/10 10:26:44;;;;;;;3.08;2.03;;;18.60;61.50;;;;;;4994139;28;20037;-77
2023/04/10 10:29:10;;;;;;;2.45;1.58;;;18.50;61.60;;;;;;5033802;28;20482;-77
2023/04/10 10:31:36;;;;;;;3.28;2.65;;;18.50;60.30;;;;;;5010216;28;20026;-79
2023/04/10 10:34:04;;;;;;;3.30;2.55;;;18.40;60.20;;;;;;4991516;28;20072;-77
2023/04/10 10:36:32;;;;;;;4.43;2.67;;;18.60;60.20;;;;;;5002304;28;20071;-76
2023/04/10 10:39:26;;;;;;;2.90;2.58;;;18.80;60.90;;;;;;5018508;28;20103;-76
2023/04/10 10:42:13;;;;;;;3.03;2.40;;;18.90;59.70;;;;;;5016986;28;20060;-77
2023/04/10 10:44:43;;;;;;;2.47;1.70;;;19.20;60.20;;;;;;5016004;28;20403;-77
2023/04/10 10:47:19;;;;;;;2.58;1.92;;;19.20;59.80;;;;;;5026107;28;20028;-76
2023/04/10 10:50:01;;;;;;;3.08;2.53;;;19.40;59.10;;;;;;5019154;28;20038;-77
2023/04/10 10:52:40;;;;;;;2.78;1.88;;;19.50;56.60;;;;;;5005258;28;20502;-77
2023/04/10 10:55:23;;;;;;;2.33;1.90;;;19.50;56.30;;;;;;5007687;28;20105;-76
2023/04/10 10:57:52;;;;;;;2.95;2.40;;;19.70;56.40;;;;;;5035355;28;20030;-77
2023/04/10 11:00:22;;;;;;;2.47;2.13;;;19.80;54.90;;;;;;5016918;28;20121;-76
2023/04/10 11:03:06;;;;;;;2.85;2.28;;;19.80;56.90;;;;;;5019886;28;20038;-77
2023/04/10 11:05:51;;;;;;;3.80;2.17;;;19.80;54.40;;;;;;5017625;28;20037;-76
2023/04/10 11:08:17;;;;;;;2.80;2.13;;;20.00;55.40;;;;;;5016683;28;20045;-76
2023/04/10 11:11:07;;;;;;;2.25;1.95;;;20.00;54.30;;;;;;5002687;28;20096;-76
2023/04/10 11:13:56;;;;;;;8.65;2.20;;;20.00;53.90;;;;;;5022169;28;20034;-76
2023/04/10 11:16:44;;;;;;;2.03;1.52;;;20.10;52.80;;;;;;5016327;28;20034;-76
2023/04/10 11:19:13;;;;;;;2.13;1.75;;;20.00;52.80;;;;;;5020586;28;20029;-76
2023/04/10 11:22:06;;;;;;;2.05;1.88;;;19.90;52.30;;;;;;5013411;28;20441;-76
2023/04/10 11:24:57;;;;;;;1.17;0.93;;;20.00;51.00;;;;;;5001450;28;20116;-76
2023/04/10 11:27:43;;;;;;;2.17;1.77;;;19.80;49.80;;;;;;4996391;28;20045;-75
2023/04/10 11:30:26;;;;;;;2.20;1.65;;;20.10;51.90;;;;;;5012892;28;20033;-76
2023/04/10 11:32:52;;;;;;;2.10;1.88;;;19.90;50.30;;;;;;5022030;28;20436;-76
2023/04/10 11:35:18;;;;;;;3.63;2.58;;;19.90;51.00;;;;;;5027909;28;20030;-76
2023/04/10 11:37:44;;;;;;;3.53;1.75;;;20.10;50.10;;;;;;5002212;28;20030;-76
2023/04/10 11:40:10;;;;;;;2.55;2.20;;;20.20;51.50;;;;;;5014349;28;20029;-75
2023/04/10 11:42:36;;;;;;;2.28;2.08;;;20.10;51.70;;;;;;5001022;28;20054;-77
2023/04/10 11:45:22;;;;;;;3.67;2.28;;;20.10;52.20;;;;;;5024940;28;20029;-77
2023/04/10 11:47:54;;;;;;;2.28;2.08;;;20.40;51.00;;;;;;5018531;28;20030;-77
2023/04/10 11:50:20;;;;;;;4.18;1.90;;;20.50;50.50;;;;;;5001123;28;20050;-77
2023/04/10 11:52:49;;;;;;;3.80;1.88;;;20.40;48.90;;;;;;5008325;28;20049;-76
2023/04/10 11:55:15;;;;;;;3.03;2.10;;;20.30;48.80;;;;;;5032319;28;20030;-77
2023/04/10 11:57:41;;;;;;;2.30;1.75;;;20.30;48.80;;;;;;5018672;28;20118;-77
2023/04/10 12:00:09;;;;;;;1.90;1.70;;;20.30;50.00;;;;;;4991517;28;20116;-77
2023/04/10 12:02:34;;;;;;;2.17;1.67;;;20.10;49.60;;;;;;5013594;28;20034;-77
2023/04/10 12:05:00;;;;;;;2.05;1.85;;;20.10;49.20;;;;;;5007453;28;20057;-78
2023/04/10 12:07:30;;;;;;;3.00;1.98;;;20.10;48.70;;;;;;5004741;28;20034;-76
2023/04/10 12:09:56;;;;;;;2.22;1.40;;;20.00;49.70;;;;;;5017090;28;20029;-76
2023/04/10 12:12:33;;;;;;;1.20;1.05;;;20.30;49.60;;;;;;5020778;28;20049;-76
2023/04/10 12:14:59;;;;;;;2.03;1.75;;;20.30;48.80;;;;;;5020014;28;20033;-77
2023/04/10 12:17:25;;;;;;;2.35;1.83;;;20.40;50.20;;;;;;4999972;28;20046;-76
2023/04/10 12:19:50;;;;;;;3.03;1.92;;;20.30;47.80;;;;;;5002243;28;20466;-76
2023/04/10 12:22:16;;;;;;;2.38;2.15;;;20.30;48.30;;;;;;5018896;28;20036;-76
2023/04/10 12:24:47;;;;;;;2.25;1.90;;;20.50;49.10;;;;;;5016589;28;20113;-76
2023/04/10 12:27:16;;;;;;;2.92;1.90;;;20.50;48.20;;;;;;4994485;28;20026;-76
2023/04/10 12:29:42;;;;;;;2.38;1.90;;;20.40;48.80;;;;;;5013273;28;20029;-75
2023/04/10 12:32:08;;;;;;;2.72;1.80;;;20.40;49.20;;;;;;5031090;28;20021;-75
2023/04/10 12:34:33;;;;;;;2.20;2.00;;;20.40;48.30;;;;;;5014377;28;20036;-75
2023/04/10 12:36:59;;;;;;;2.20;2.00;;;20.70;49.80;;;;;;5022394;28;20033;-75
2023/04/10 12:39:25;;;;;;;3.42;2.33;;;20.70;48.30;;;;;;5034352;28;20065;-75
2023/04/10 12:41:51;;;;;;;2.38;2.13;;;20.80;48.70;;;;;;5017256;28;20113;-76
2023/04/10 12:44:18;;;;;;;3.28;2.38;;;20.70;48.20;;;;;;5014415;28;20474;-76
2023/04/10 12:46:44;;;;;;;1.95;1.63;;;21.10;48.80;;;;;;5028288;28;20032;-75
2023/04/10 12:49:14;;;;;;;2.35;1.77;;;20.70;49.60;;;;;;5007785;28;20038;-75
2023/04/10 12:51:50;;;;;;;2.30;1.88;;;21.00;51.60;;;;;;5016666;28;20539;-75